sensor_id;sensor_type;location;lat;lon;timestamp;P1;durP1;ratioP1;P2;durP2;ratioP2
80647;SDS011;70012;0.000;0.000;2023-09-30T00:01:57;6.20;;;3.30;;
80647;SDS011;70012;0.000;0.000;2023-09-30T00:04:25;6.65;;;3.20;;
80647;SDS011;70012;0.000;0.000;2023-09-30T00:06:54;8.65;;;3.60;;
80647;SDS011;70012;0.000;0.000;2023-09-30T00:09:21;10.02;;;4.00;;
80647;SDS011;70012;0.000;0.000;2023-09-30T00:11:48;6.55;;;2.90;;
80647;SDS011;70012;0.000;0.000;2023-09-30T00:14:15;7.50;;;3.00;;
80647;SDS011;70012;0.000;0.000;2023-09-30T00:16:43;6.57;;;3.22;;
80647;SDS011;70012;0.000;0.000;2023-09-30T00:19:11;8.90;;;3.25;;
80647;SDS011;70012;0.000;0.000;2023-09-30T00:21:37;8.80;;;3.63;;
80647;SDS011;70012;0.000;0.000;2023-09-30T00:24:05;5.93;;;3.10;;
80647;SDS011;70012;0.000;0.000;2023-09-30T00:26:34;8.20;;;3.35;;
80647;SDS011;70012;0.000;0.000;2023-09-30T00:29:01;7.75;;;2.97;;
80647;SDS011;70012;0.000;0.000;2023-09-30T00:31:31;8.23;;;4.03;;
80647;SDS011;70012;0.000;0.000;2023-09-30T00:33:58;11.10;;;3.17;;
80647;SDS011;70012;0.000;0.000;2023-09-30T00:36:25;6.15;;;2.95;;
80647;SDS011;70012;0.000;0.000;2023-09-30T00:38:52;7.55;;;3.15;;
80647;SDS011;70012;0.000;0.000;2023-09-30T00:41:19;10.75;;;3.65;;
80647;SDS011;70012;0.000;0.000;2023-09-30T00:43:46;5.47;;;3.10;;
80647;SDS011;70012;0.000;0.000;2023-09-30T00:46:29;9.63;;;3.85;;
80647;SDS011;70012;0.000;0.000;2023-09-30T00:48:58;9.75;;;3.70;;
80647;SDS011;70012;0.000;0.000;2023-09-30T00:51:26;8.90;;;3.40;;
80647;SDS011;70012;0.000;0.000;2023-09-30T00:53:56;7.07;;;3.47;;
80647;SDS011;70012;0.000;0.000;2023-09-30T00:56:26;8.07;;;3.50;;
80647;SDS011;70012;0.000;0.000;2023-09-30T00:58:56;7.07;;;3.20;;
80647;SDS011;70012;0.000;0.000;2023-09-30T01:01:23;7.03;;;3.05;;
80647;SDS011;70012;0.000;0.000;2023-09-30T01:03:50;6.45;;;3.20;;
80647;SDS011;70012;0.000;0.000;2023-09-30T01:06:18;7.78;;;3.58;;
80647;SDS011;70012;0.000;0.000;2023-09-30T01:08:44;6.10;;;3.70;;
80647;SDS011;70012;0.000;0.000;2023-09-30T01:11:12;8.30;;;3.38;;
80647;SDS011;70012;0.000;0.000;2023-09-30T01:13:39;9.02;;;3.58;;
80647;SDS011;70012;0.000;0.000;2023-09-30T01:16:07;9.23;;;3.85;;
80647;SDS011;70012;0.000;0.000;2023-09-30T01:18:39;7.35;;;3.65;;
80647;SDS011;70012;0.000;0.000;2023-09-30T01:21:10;8.40;;;3.95;;
80647;SDS011;70012;0.000;0.000;2023-09-30T01:23:38;8.10;;;3.70;;
80647;SDS011;70012;0.000;0.000;2023-09-30T01:26:07;9.38;;;4.35;;
80647;SDS011;70012;0.000;0.000;2023-09-30T01:28:39;9.32;;;4.22;;
80647;SDS011;70012;0.000;0.000;2023-09-30T01:31:07;10.15;;;3.72;;
80647;SDS011;70012;0.000;0.000;2023-09-30T01:33:34;11.95;;;4.70;;
80647;SDS011;70012;0.000;0.000;2023-09-30T01:36:01;16.58;;;4.68;;
80647;SDS011;70012;0.000;0.000;2023-09-30T01:38:29;8.50;;;4.07;;
80647;SDS011;70012;0.000;0.000;2023-09-30T01:40:59;12.82;;;4.40;;
80647;SDS011;70012;0.000;0.000;2023-09-30T01:43:28;12.70;;;4.50;;
80647;SDS011;70012;0.000;0.000;2023-09-30T01:45:55;7.78;;;3.50;;
80647;SDS011;70012;0.000;0.000;2023-09-30T01:48:23;10.00;;;3.92;;
80647;SDS011;70012;0.000;0.000;2023-09-30T01:50:50;9.15;;;4.80;;
80647;SDS011;70012;0.000;0.000;2023-09-30T01:53:17;8.50;;;3.97;;
80647;SDS011;70012;0.000;0.000;2023-09-30T01:55:44;6.97;;;3.58;;
80647;SDS011;70012;0.000;0.000;2023-09-30T01:58:11;8.13;;;4.25;;
80647;SDS011;70012;0.000;0.000;2023-09-30T02:00:39;7.68;;;3.47;;
80647;SDS011;70012;0.000;0.000;2023-09-30T02:03:06;9.10;;;4.45;;
80647;SDS011;70012;0.000;0.000;2023-09-30T02:05:34;8.95;;;4.40;;
80647;SDS011;70012;0.000;0.000;2023-09-30T02:08:01;10.43;;;5.07;;
80647;SDS011;70012;0.000;0.000;2023-09-30T02:10:35;13.20;;;4.15;;
80647;SDS011;70012;0.000;0.000;2023-09-30T02:13:03;9.75;;;4.25;;
80647;SDS011;70012;0.000;0.000;2023-09-30T02:15:33;9.40;;;4.35;;
80647;SDS011;70012;0.000;0.000;2023-09-30T02:18:00;7.63;;;4.00;;
80647;SDS011;70012;0.000;0.000;2023-09-30T02:20:30;10.50;;;4.65;;
80647;SDS011;70012;0.000;0.000;2023-09-30T02:22:57;11.23;;;4.00;;
80647;SDS011;70012;0.000;0.000;2023-09-30T02:25:25;7.22;;;3.78;;
80647;SDS011;70012;0.000;0.000;2023-09-30T02:27:53;10.20;;;3.90;;
80647;SDS011;70012;0.000;0.000;2023-09-30T02:30:21;7.85;;;4.10;;
80647;SDS011;70012;0.000;0.000;2023-09-30T02:32:48;9.52;;;4.38;;
80647;SDS011;70012;0.000;0.000;2023-09-30T02:35:15;8.52;;;4.35;;
80647;SDS011;70012;0.000;0.000;2023-09-30T02:37:42;11.23;;;4.13;;
80647;SDS011;70012;0.000;0.000;2023-09-30T02:40:10;7.30;;;4.28;;
80647;SDS011;70012;0.000;0.000;2023-09-30T02:42:38;13.32;;;3.92;;
80647;SDS011;70012;0.000;0.000;2023-09-30T02:45:09;15.65;;;4.28;;
80647;SDS011;70012;0.000;0.000;2023-09-30T02:47:38;8.25;;;4.38;;
80647;SDS011;70012;0.000;0.000;2023-09-30T02:50:06;8.52;;;3.80;;
80647;SDS011;70012;0.000;0.000;2023-09-30T02:52:40;9.95;;;4.00;;
80647;SDS011;70012;0.000;0.000;2023-09-30T02:55:08;9.13;;;4.07;;
80647;SDS011;70012;0.000;0.000;2023-09-30T02:57:39;8.95;;;3.90;;
80647;SDS011;70012;0.000;0.000;2023-09-30T03:00:08;8.93;;;3.80;;
80647;SDS011;70012;0.000;0.000;2023-09-30T03:02:59;7.97;;;4.32;;
80647;SDS011;70012;0.000;0.000;2023-09-30T03:05:28;9.13;;;4.40;;
80647;SDS011;70012;0.000;0.000;2023-09-30T03:08:01;6.88;;;3.70;;
80647;SDS011;70012;0.000;0.000;2023-09-30T03:10:28;7.60;;;3.90;;
80647;SDS011;70012;0.000;0.000;2023-09-30T03:12:58;8.30;;;3.45;;
80647;SDS011;70012;0.000;0.000;2023-09-30T03:15:29;6.60;;;3.80;;
80647;SDS011;70012;0.000;0.000;2023-09-30T03:17:58;6.22;;;3.90;;
80647;SDS011;70012;0.000;0.000;2023-09-30T03:20:27;8.18;;;3.65;;
80647;SDS011;70012;0.000;0.000;2023-09-30T03:22:56;9.13;;;3.70;;
80647;SDS011;70012;0.000;0.000;2023-09-30T03:25:26;7.63;;;3.83;;
80647;SDS011;70012;0.000;0.000;2023-09-30T03:27:53;7.03;;;3.78;;
80647;SDS011;70012;0.000;0.000;2023-09-30T03:30:26;6.00;;;3.63;;
80647;SDS011;70012;0.000;0.000;2023-09-30T03:32:53;8.38;;;3.42;;
80647;SDS011;70012;0.000;0.000;2023-09-30T03:35:21;7.07;;;4.50;;
80647;SDS011;70012;0.000;0.000;2023-09-30T03:37:49;6.90;;;3.58;;
80647;SDS011;70012;0.000;0.000;2023-09-30T03:40:17;7.13;;;3.63;;
80647;SDS011;70012;0.000;0.000;2023-09-30T03:42:54;9.45;;;4.05;;
80647;SDS011;70012;0.000;0.000;2023-09-30T03:45:21;10.77;;;3.95;;
80647;SDS011;70012;0.000;0.000;2023-09-30T03:47:48;11.88;;;3.50;;
80647;SDS011;70012;0.000;0.000;2023-09-30T03:50:16;9.13;;;3.83;;
80647;SDS011;70012;0.000;0.000;2023-09-30T03:52:43;9.73;;;3.60;;
80647;SDS011;70012;0.000;0.000;2023-09-30T03:55:13;8.35;;;4.05;;
80647;SDS011;70012;0.000;0.000;2023-09-30T03:57:43;5.88;;;3.60;;
80647;SDS011;70012;0.000;0.000;2023-09-30T04:00:14;7.22;;;3.60;;
80647;SDS011;70012;0.000;0.000;2023-09-30T04:02:47;10.57;;;3.40;;
80647;SDS011;70012;0.000;0.000;2023-09-30T04:05:21;6.95;;;3.58;;
80647;SDS011;70012;0.000;0.000;2023-09-30T04:10:28;11.48;;;3.80;;
80647;SDS011;70012;0.000;0.000;2023-09-30T04:12:56;9.40;;;3.88;;
80647;SDS011;70012;0.000;0.000;2023-09-30T04:15:23;9.60;;;4.30;;
80647;SDS011;70012;0.000;0.000;2023-09-30T04:17:50;7.63;;;3.15;;
80647;SDS011;70012;0.000;0.000;2023-09-30T04:20:18;8.95;;;3.65;;
80647;SDS011;70012;0.000;0.000;2023-09-30T04:22:50;6.57;;;3.38;;
80647;SDS011;70012;0.000;0.000;2023-09-30T04:25:17;7.03;;;2.95;;
80647;SDS011;70012;0.000;0.000;2023-09-30T04:27:45;8.25;;;3.25;;
80647;SDS011;70012;0.000;0.000;2023-09-30T04:30:15;7.88;;;3.38;;
80647;SDS011;70012;0.000;0.000;2023-09-30T04:32:43;7.85;;;3.60;;
80647;SDS011;70012;0.000;0.000;2023-09-30T04:35:10;9.52;;;3.58;;
80647;SDS011;70012;0.000;0.000;2023-09-30T04:37:37;8.57;;;3.45;;
80647;SDS011;70012;0.000;0.000;2023-09-30T04:40:04;6.28;;;3.35;;
80647;SDS011;70012;0.000;0.000;2023-09-30T04:42:42;7.22;;;3.00;;
80647;SDS011;70012;0.000;0.000;2023-09-30T04:45:11;8.63;;;3.15;;
80647;SDS011;70012;0.000;0.000;2023-09-30T04:47:38;8.20;;;3.40;;
80647;SDS011;70012;0.000;0.000;2023-09-30T04:50:06;8.30;;;3.50;;
80647;SDS011;70012;0.000;0.000;2023-09-30T04:52:35;8.45;;;3.95;;
80647;SDS011;70012;0.000;0.000;2023-09-30T04:55:15;8.82;;;3.60;;
80647;SDS011;70012;0.000;0.000;2023-09-30T04:57:43;6.72;;;3.30;;
80647;SDS011;70012;0.000;0.000;2023-09-30T05:00:15;7.43;;;3.65;;
80647;SDS011;70012;0.000;0.000;2023-09-30T05:02:52;8.32;;;3.40;;
80647;SDS011;70012;0.000;0.000;2023-09-30T05:05:20;6.78;;;3.55;;
80647;SDS011;70012;0.000;0.000;2023-09-30T05:07:47;6.03;;;3.33;;
80647;SDS011;70012;0.000;0.000;2023-09-30T05:10:14;7.07;;;3.42;;
80647;SDS011;70012;0.000;0.000;2023-09-30T05:12:43;7.38;;;3.42;;
80647;SDS011;70012;0.000;0.000;2023-09-30T05:15:14;7.13;;;3.42;;
80647;SDS011;70012;0.000;0.000;2023-09-30T05:17:43;6.03;;;3.28;;
80647;SDS011;70012;0.000;0.000;2023-09-30T05:20:10;6.60;;;3.10;;
80647;SDS011;70012;0.000;0.000;2023-09-30T05:22:39;7.45;;;3.25;;
80647;SDS011;70012;0.000;0.000;2023-09-30T05:25:14;7.22;;;2.88;;
80647;SDS011;70012;0.000;0.000;2023-09-30T05:27:48;7.25;;;3.00;;
80647;SDS011;70012;0.000;0.000;2023-09-30T05:30:16;6.78;;;3.70;;
80647;SDS011;70012;0.000;0.000;2023-09-30T05:32:47;8.30;;;3.60;;
80647;SDS011;70012;0.000;0.000;2023-09-30T05:35:20;6.30;;;3.90;;
80647;SDS011;70012;0.000;0.000;2023-09-30T05:38:30;7.28;;;2.95;;
80647;SDS011;70012;0.000;0.000;2023-09-30T05:40:57;8.18;;;3.88;;
80647;SDS011;70012;0.000;0.000;2023-09-30T05:43:25;9.85;;;3.50;;
80647;SDS011;70012;0.000;0.000;2023-09-30T05:45:53;8.15;;;3.05;;
80647;SDS011;70012;0.000;0.000;2023-09-30T05:48:24;7.13;;;3.90;;
80647;SDS011;70012;0.000;0.000;2023-09-30T05:50:51;5.55;;;3.10;;
80647;SDS011;70012;0.000;0.000;2023-09-30T05:53:18;7.05;;;3.40;;
80647;SDS011;70012;0.000;0.000;2023-09-30T05:55:47;8.93;;;4.40;;
80647;SDS011;70012;0.000;0.000;2023-09-30T06:00:42;7.18;;;3.40;;
80647;SDS011;70012;0.000;0.000;2023-09-30T06:03:09;9.88;;;3.55;;
80647;SDS011;70012;0.000;0.000;2023-09-30T06:05:41;8.30;;;3.40;;
80647;SDS011;70012;0.000;0.000;2023-09-30T06:08:09;8.05;;;3.63;;
80647;SDS011;70012;0.000;0.000;2023-09-30T06:10:40;6.72;;;3.42;;
80647;SDS011;70012;0.000;0.000;2023-09-30T06:13:11;9.23;;;3.42;;
80647;SDS011;70012;0.000;0.000;2023-09-30T06:15:40;10.18;;;3.90;;
80647;SDS011;70012;0.000;0.000;2023-09-30T06:18:10;6.68;;;3.03;;
80647;SDS011;70012;0.000;0.000;2023-09-30T06:20:40;7.22;;;3.50;;
80647;SDS011;70012;0.000;0.000;2023-09-30T06:23:08;8.82;;;3.60;;
80647;SDS011;70012;0.000;0.000;2023-09-30T06:25:36;6.22;;;3.50;;
80647;SDS011;70012;0.000;0.000;2023-09-30T06:28:03;7.55;;;3.53;;
80647;SDS011;70012;0.000;0.000;2023-09-30T06:30:30;10.75;;;3.85;;
80647;SDS011;70012;0.000;0.000;2023-09-30T06:32:58;9.48;;;3.47;;
80647;SDS011;70012;0.000;0.000;2023-09-30T06:35:32;9.90;;;4.40;;
80647;SDS011;70012;0.000;0.000;2023-09-30T06:38:04;9.32;;;3.45;;
80647;SDS011;70012;0.000;0.000;2023-09-30T06:40:33;8.57;;;3.40;;
80647;SDS011;70012;0.000;0.000;2023-09-30T06:43:04;6.88;;;3.22;;
80647;SDS011;70012;0.000;0.000;2023-09-30T06:45:31;8.85;;;3.47;;
80647;SDS011;70012;0.000;0.000;2023-09-30T06:47:59;6.43;;;2.78;;
80647;SDS011;70012;0.000;0.000;2023-09-30T06:50:30;5.80;;;2.75;;
80647;SDS011;70012;0.000;0.000;2023-09-30T06:52:58;8.20;;;3.00;;
80647;SDS011;70012;0.000;0.000;2023-09-30T06:55:26;8.32;;;3.03;;
80647;SDS011;70012;0.000;0.000;2023-09-30T06:57:55;8.65;;;3.10;;
80647;SDS011;70012;0.000;0.000;2023-09-30T07:00:22;10.73;;;3.53;;
80647;SDS011;70012;0.000;0.000;2023-09-30T07:02:52;9.02;;;2.90;;
80647;SDS011;70012;0.000;0.000;2023-09-30T07:05:22;11.35;;;3.67;;
80647;SDS011;70012;0.000;0.000;2023-09-30T07:07:49;8.57;;;3.38;;
80647;SDS011;70012;0.000;0.000;2023-09-30T07:10:19;5.93;;;3.22;;
80647;SDS011;70012;0.000;0.000;2023-09-30T07:12:49;8.68;;;3.40;;
80647;SDS011;70012;0.000;0.000;2023-09-30T07:15:36;11.45;;;3.25;;
80647;SDS011;70012;0.000;0.000;2023-09-30T07:18:03;11.57;;;3.42;;
80647;SDS011;70012;0.000;0.000;2023-09-30T07:20:30;8.52;;;3.15;;
80647;SDS011;70012;0.000;0.000;2023-09-30T07:22:59;10.10;;;4.30;;
80647;SDS011;70012;0.000;0.000;2023-09-30T07:25:44;10.57;;;3.58;;
80647;SDS011;70012;0.000;0.000;2023-09-30T07:28:12;7.85;;;3.35;;
80647;SDS011;70012;0.000;0.000;2023-09-30T07:30:40;7.38;;;3.10;;
80647;SDS011;70012;0.000;0.000;2023-09-30T07:33:09;8.45;;;4.22;;
80647;SDS011;70012;0.000;0.000;2023-09-30T07:35:36;10.30;;;4.10;;
80647;SDS011;70012;0.000;0.000;2023-09-30T07:38:05;9.55;;;3.53;;
80647;SDS011;70012;0.000;0.000;2023-09-30T07:40:33;9.90;;;3.97;;
80647;SDS011;70012;0.000;0.000;2023-09-30T07:43:01;10.80;;;3.67;;
80647;SDS011;70012;0.000;0.000;2023-09-30T07:45:28;7.72;;;3.55;;
80647;SDS011;70012;0.000;0.000;2023-09-30T07:47:56;9.23;;;3.47;;
80647;SDS011;70012;0.000;0.000;2023-09-30T07:50:25;7.63;;;3.83;;
80647;SDS011;70012;0.000;0.000;2023-09-30T07:52:52;8.98;;;4.10;;
80647;SDS011;70012;0.000;0.000;2023-09-30T07:55:23;12.68;;;4.65;;
80647;SDS011;70012;0.000;0.000;2023-09-30T07:57:52;6.88;;;4.50;;
80647;SDS011;70012;0.000;0.000;2023-09-30T08:00:19;7.28;;;3.63;;
80647;SDS011;70012;0.000;0.000;2023-09-30T08:02:48;7.90;;;3.88;;
80647;SDS011;70012;0.000;0.000;2023-09-30T08:05:19;9.55;;;3.85;;
80647;SDS011;70012;0.000;0.000;2023-09-30T08:07:46;10.73;;;4.60;;
80647;SDS011;70012;0.000;0.000;2023-09-30T08:10:13;15.68;;;4.38;;
80647;SDS011;70012;0.000;0.000;2023-09-30T08:12:42;8.18;;;3.97;;
80647;SDS011;70012;0.000;0.000;2023-09-30T08:15:12;9.82;;;4.03;;
80647;SDS011;70012;0.000;0.000;2023-09-30T08:17:39;11.30;;;4.25;;
80647;SDS011;70012;0.000;0.000;2023-09-30T08:20:07;9.98;;;4.45;;
80647;SDS011;70012;0.000;0.000;2023-09-30T08:22:38;10.52;;;4.68;;
80647;SDS011;70012;0.000;0.000;2023-09-30T08:25:06;7.25;;;4.15;;
80647;SDS011;70012;0.000;0.000;2023-09-30T08:27:33;8.50;;;4.15;;
80647;SDS011;70012;0.000;0.000;2023-09-30T08:29:59;8.05;;;4.45;;
80647;SDS011;70012;0.000;0.000;2023-09-30T08:32:33;9.88;;;4.97;;
80647;SDS011;70012;0.000;0.000;2023-09-30T08:35:01;11.10;;;4.72;;
80647;SDS011;70012;0.000;0.000;2023-09-30T08:37:29;12.40;;;4.60;;
80647;SDS011;70012;0.000;0.000;2023-09-30T08:39:58;8.98;;;4.25;;
80647;SDS011;70012;0.000;0.000;2023-09-30T08:42:27;12.15;;;5.35;;
80647;SDS011;70012;0.000;0.000;2023-09-30T08:45:00;11.95;;;5.00;;
80647;SDS011;70012;0.000;0.000;2023-09-30T08:47:27;10.23;;;4.97;;
80647;SDS011;70012;0.000;0.000;2023-09-30T08:50:15;11.05;;;5.55;;
80647;SDS011;70012;0.000;0.000;2023-09-30T08:52:43;11.18;;;5.82;;
80647;SDS011;70012;0.000;0.000;2023-09-30T08:55:11;9.98;;;6.68;;
80647;SDS011;70012;0.000;0.000;2023-09-30T08:57:39;11.52;;;6.13;;
80647;SDS011;70012;0.000;0.000;2023-09-30T09:00:07;12.07;;;6.45;;
80647;SDS011;70012;0.000;0.000;2023-09-30T09:02:40;10.02;;;6.10;;
80647;SDS011;70012;0.000;0.000;2023-09-30T09:05:08;11.80;;;6.00;;
80647;SDS011;70012;0.000;0.000;2023-09-30T09:07:36;11.00;;;5.70;;
80647;SDS011;70012;0.000;0.000;2023-09-30T09:10:09;11.30;;;5.85;;
80647;SDS011;70012;0.000;0.000;2023-09-30T09:12:40;13.73;;;5.75;;
80647;SDS011;70012;0.000;0.000;2023-09-30T09:15:08;14.68;;;6.30;;
80647;SDS011;70012;0.000;0.000;2023-09-30T09:20:18;15.40;;;5.70;;
80647;SDS011;70012;0.000;0.000;2023-09-30T09:22:54;11.85;;;6.75;;
80647;SDS011;70012;0.000;0.000;2023-09-30T09:25:41;12.40;;;5.72;;
80647;SDS011;70012;0.000;0.000;2023-09-30T09:28:08;15.13;;;5.63;;
80647;SDS011;70012;0.000;0.000;2023-09-30T09:30:37;9.88;;;5.70;;
80647;SDS011;70012;0.000;0.000;2023-09-30T09:33:05;7.68;;;4.53;;
80647;SDS011;70012;0.000;0.000;2023-09-30T09:35:32;11.57;;;4.50;;
80647;SDS011;70012;0.000;0.000;2023-09-30T09:38:04;7.07;;;4.30;;
80647;SDS011;70012;0.000;0.000;2023-09-30T09:40:32;11.65;;;5.47;;
80647;SDS011;70012;0.000;0.000;2023-09-30T09:43:01;8.77;;;5.13;;
80647;SDS011;70012;0.000;0.000;2023-09-30T09:45:32;8.65;;;4.43;;
80647;SDS011;70012;0.000;0.000;2023-09-30T09:48:01;12.55;;;4.90;;
80647;SDS011;70012;0.000;0.000;2023-09-30T09:50:31;8.95;;;4.55;;
80647;SDS011;70012;0.000;0.000;2023-09-30T09:53:02;8.45;;;4.50;;
80647;SDS011;70012;0.000;0.000;2023-09-30T09:55:30;8.50;;;3.95;;
80647;SDS011;70012;0.000;0.000;2023-09-30T09:57:58;8.20;;;4.03;;
80647;SDS011;70012;0.000;0.000;2023-09-30T10:00:29;8.63;;;4.93;;
80647;SDS011;70012;0.000;0.000;2023-09-30T10:02:58;7.35;;;4.63;;
80647;SDS011;70012;0.000;0.000;2023-09-30T10:05:25;7.57;;;4.20;;
80647;SDS011;70012;0.000;0.000;2023-09-30T10:07:54;6.70;;;3.97;;
80647;SDS011;70012;0.000;0.000;2023-09-30T10:10:29;8.52;;;4.72;;
80647;SDS011;70012;0.000;0.000;2023-09-30T10:13:01;9.63;;;4.55;;
80647;SDS011;70012;0.000;0.000;2023-09-30T10:18:01;10.35;;;5.15;;
80647;SDS011;70012;0.000;0.000;2023-09-30T10:20:41;9.95;;;4.53;;
80647;SDS011;70012;0.000;0.000;2023-09-30T10:25:53;8.07;;;4.22;;
80647;SDS011;70012;0.000;0.000;2023-09-30T10:28:34;6.15;;;3.97;;
80647;SDS011;70012;0.000;0.000;2023-09-30T10:38:56;5.28;;;2.53;;
80647;SDS011;70012;0.000;0.000;2023-09-30T10:46:54;4.68;;;2.45;;
80647;SDS011;70012;0.000;0.000;2023-09-30T10:51:50;6.93;;;2.40;;
80647;SDS011;70012;0.000;0.000;2023-09-30T10:54:24;4.15;;;2.22;;
80647;SDS011;70012;0.000;0.000;2023-09-30T10:56:52;5.63;;;2.38;;
80647;SDS011;70012;0.000;0.000;2023-09-30T10:59:19;5.57;;;2.53;;
80647;SDS011;70012;0.000;0.000;2023-09-30T11:01:49;4.40;;;2.17;;
80647;SDS011;70012;0.000;0.000;2023-09-30T11:04:17;3.78;;;2.53;;
80647;SDS011;70012;0.000;0.000;2023-09-30T11:06:45;10.32;;;3.78;;
80647;SDS011;70012;0.000;0.000;2023-09-30T11:09:16;5.45;;;2.40;;
80647;SDS011;70012;0.000;0.000;2023-09-30T11:11:45;5.00;;;2.72;;
80647;SDS011;70012;0.000;0.000;2023-09-30T11:14:16;8.30;;;2.80;;
80647;SDS011;70012;0.000;0.000;2023-09-30T11:16:43;6.82;;;3.05;;
80647;SDS011;70012;0.000;0.000;2023-09-30T11:19:11;8.70;;;3.40;;
80647;SDS011;70012;0.000;0.000;2023-09-30T11:21:39;5.63;;;2.28;;
80647;SDS011;70012;0.000;0.000;2023-09-30T11:24:07;5.13;;;2.20;;
80647;SDS011;70012;0.000;0.000;2023-09-30T11:26:34;8.23;;;3.33;;
80647;SDS011;70012;0.000;0.000;2023-09-30T11:29:09;5.65;;;3.05;;
80647;SDS011;70012;0.000;0.000;2023-09-30T11:34:05;6.03;;;2.78;;
80647;SDS011;70012;0.000;0.000;2023-09-30T11:36:34;9.02;;;3.40;;
80647;SDS011;70012;0.000;0.000;2023-09-30T11:39:02;7.05;;;3.15;;
80647;SDS011;70012;0.000;0.000;2023-09-30T11:44:10;5.50;;;2.47;;
80647;SDS011;70012;0.000;0.000;2023-09-30T11:46:58;5.07;;;2.38;;
80647;SDS011;70012;0.000;0.000;2023-09-30T11:49:37;3.55;;;2.00;;
80647;SDS011;70012;0.000;0.000;2023-09-30T11:52:07;5.03;;;2.33;;
80647;SDS011;70012;0.000;0.000;2023-09-30T11:54:39;5.95;;;2.28;;
80647;SDS011;70012;0.000;0.000;2023-09-30T11:57:11;6.60;;;2.60;;
80647;SDS011;70012;0.000;0.000;2023-09-30T11:59:42;6.45;;;2.42;;
80647;SDS011;70012;0.000;0.000;2023-09-30T12:02:11;4.32;;;2.20;;
80647;SDS011;70012;0.000;0.000;2023-09-30T12:04:42;5.90;;;2.35;;
80647;SDS011;70012;0.000;0.000;2023-09-30T12:07:11;4.57;;;2.10;;
80647;SDS011;70012;0.000;0.000;2023-09-30T12:09:38;5.35;;;2.20;;
80647;SDS011;70012;0.000;0.000;2023-09-30T12:12:07;6.90;;;2.53;;
80647;SDS011;70012;0.000;0.000;2023-09-30T12:14:39;6.38;;;2.78;;
80647;SDS011;70012;0.000;0.000;2023-09-30T12:17:07;5.15;;;3.05;;
80647;SDS011;70012;0.000;0.000;2023-09-30T12:19:38;4.55;;;2.70;;
80647;SDS011;70012;0.000;0.000;2023-09-30T12:22:08;7.05;;;2.92;;
80647;SDS011;70012;0.000;0.000;2023-09-30T12:24:37;5.57;;;2.55;;
80647;SDS011;70012;0.000;0.000;2023-09-30T12:27:03;5.15;;;2.40;;
80647;SDS011;70012;0.000;0.000;2023-09-30T12:29:31;4.80;;;2.03;;
80647;SDS011;70012;0.000;0.000;2023-09-30T12:31:58;5.60;;;2.50;;
80647;SDS011;70012;0.000;0.000;2023-09-30T12:34:25;4.25;;;2.20;;
80647;SDS011;70012;0.000;0.000;2023-09-30T12:36:54;3.45;;;2.17;;
80647;SDS011;70012;0.000;0.000;2023-09-30T12:39:23;7.32;;;2.50;;
80647;SDS011;70012;0.000;0.000;2023-09-30T12:41:53;5.38;;;2.40;;
80647;SDS011;70012;0.000;0.000;2023-09-30T12:44:19;4.35;;;2.30;;
80647;SDS011;70012;0.000;0.000;2023-09-30T12:46:46;5.97;;;2.22;;
80647;SDS011;70012;0.000;0.000;2023-09-30T12:49:13;3.60;;;2.20;;
80647;SDS011;70012;0.000;0.000;2023-09-30T12:51:40;5.45;;;2.20;;
80647;SDS011;70012;0.000;0.000;2023-09-30T12:54:07;5.38;;;2.53;;
80647;SDS011;70012;0.000;0.000;2023-09-30T12:56:35;4.90;;;2.60;;
80647;SDS011;70012;0.000;0.000;2023-09-30T12:59:02;8.15;;;2.30;;
80647;SDS011;70012;0.000;0.000;2023-09-30T13:01:29;5.57;;;2.03;;
80647;SDS011;70012;0.000;0.000;2023-09-30T13:03:58;5.35;;;2.47;;
80647;SDS011;70012;0.000;0.000;2023-09-30T13:06:25;5.72;;;2.25;;
80647;SDS011;70012;0.000;0.000;2023-09-30T13:08:52;5.40;;;2.45;;
80647;SDS011;70012;0.000;0.000;2023-09-30T13:11:19;6.32;;;3.28;;
80647;SDS011;70012;0.000;0.000;2023-09-30T13:13:45;5.15;;;2.40;;
80647;SDS011;70012;0.000;0.000;2023-09-30T13:16:12;8.27;;;2.40;;
80647;SDS011;70012;0.000;0.000;2023-09-30T13:18:39;5.80;;;2.40;;
80647;SDS011;70012;0.000;0.000;2023-09-30T13:21:06;4.15;;;2.33;;
80647;SDS011;70012;0.000;0.000;2023-09-30T13:23:33;7.50;;;2.65;;
80647;SDS011;70012;0.000;0.000;2023-09-30T13:26:01;3.85;;;2.25;;
80647;SDS011;70012;0.000;0.000;2023-09-30T13:28:28;5.57;;;2.75;;
80647;SDS011;70012;0.000;0.000;2023-09-30T13:30:55;5.60;;;2.50;;
80647;SDS011;70012;0.000;0.000;2023-09-30T13:33:22;6.50;;;2.50;;
80647;SDS011;70012;0.000;0.000;2023-09-30T13:35:49;5.78;;;2.65;;
80647;SDS011;70012;0.000;0.000;2023-09-30T13:38:16;6.82;;;2.40;;
80647;SDS011;70012;0.000;0.000;2023-09-30T13:40:43;4.88;;;2.60;;
80647;SDS011;70012;0.000;0.000;2023-09-30T13:43:10;3.53;;;2.22;;
80647;SDS011;70012;0.000;0.000;2023-09-30T13:45:37;6.22;;;2.47;;
80647;SDS011;70012;0.000;0.000;2023-09-30T13:48:04;5.95;;;2.97;;
80647;SDS011;70012;0.000;0.000;2023-09-30T13:50:33;5.38;;;2.58;;
80647;SDS011;70012;0.000;0.000;2023-09-30T13:53:00;4.53;;;2.47;;
80647;SDS011;70012;0.000;0.000;2023-09-30T13:55:29;4.40;;;2.20;;
80647;SDS011;70012;0.000;0.000;2023-09-30T13:57:56;9.23;;;3.00;;
80647;SDS011;70012;0.000;0.000;2023-09-30T14:00:22;5.85;;;2.88;;
80647;SDS011;70012;0.000;0.000;2023-09-30T14:02:49;6.35;;;2.90;;
80647;SDS011;70012;0.000;0.000;2023-09-30T14:05:18;7.45;;;2.60;;
80647;SDS011;70012;0.000;0.000;2023-09-30T14:07:45;4.97;;;2.15;;
80647;SDS011;70012;0.000;0.000;2023-09-30T14:10:12;5.88;;;2.22;;
80647;SDS011;70012;0.000;0.000;2023-09-30T14:12:42;5.13;;;2.47;;
80647;SDS011;70012;0.000;0.000;2023-09-30T14:15:09;5.47;;;2.60;;
80647;SDS011;70012;0.000;0.000;2023-09-30T14:17:36;4.45;;;2.45;;
80647;SDS011;70012;0.000;0.000;2023-09-30T14:20:04;4.88;;;2.30;;
80647;SDS011;70012;0.000;0.000;2023-09-30T14:22:33;5.35;;;3.03;;
80647;SDS011;70012;0.000;0.000;2023-09-30T14:25:00;6.70;;;2.42;;
80647;SDS011;70012;0.000;0.000;2023-09-30T14:27:27;5.60;;;2.33;;
80647;SDS011;70012;0.000;0.000;2023-09-30T14:29:54;5.95;;;2.35;;
80647;SDS011;70012;0.000;0.000;2023-09-30T14:32:21;7.10;;;2.97;;
80647;SDS011;70012;0.000;0.000;2023-09-30T14:34:49;6.38;;;2.35;;
80647;SDS011;70012;0.000;0.000;2023-09-30T14:37:18;5.50;;;2.72;;
80647;SDS011;70012;0.000;0.000;2023-09-30T14:39:44;4.88;;;2.70;;
80647;SDS011;70012;0.000;0.000;2023-09-30T14:42:11;6.35;;;2.63;;
80647;SDS011;70012;0.000;0.000;2023-09-30T14:44:39;6.15;;;2.88;;
80647;SDS011;70012;0.000;0.000;2023-09-30T14:47:05;5.28;;;2.42;;
80647;SDS011;70012;0.000;0.000;2023-09-30T14:49:32;4.85;;;2.55;;
80647;SDS011;70012;0.000;0.000;2023-09-30T14:51:59;5.07;;;2.70;;
80647;SDS011;70012;0.000;0.000;2023-09-30T14:54:27;6.03;;;2.92;;
80647;SDS011;70012;0.000;0.000;2023-09-30T14:56:55;5.53;;;2.83;;
80647;SDS011;70012;0.000;0.000;2023-09-30T14:59:22;5.05;;;2.88;;
80647;SDS011;70012;0.000;0.000;2023-09-30T15:01:49;5.28;;;2.58;;
80647;SDS011;70012;0.000;0.000;2023-09-30T15:04:16;4.13;;;2.45;;
80647;SDS011;70012;0.000;0.000;2023-09-30T15:06:43;5.38;;;2.50;;
80647;SDS011;70012;0.000;0.000;2023-09-30T15:09:10;4.07;;;2.55;;
80647;SDS011;70012;0.000;0.000;2023-09-30T15:11:38;5.20;;;2.15;;
80647;SDS011;70012;0.000;0.000;2023-09-30T15:14:06;5.40;;;2.80;;
80647;SDS011;70012;0.000;0.000;2023-09-30T15:16:32;6.05;;;2.45;;
80647;SDS011;70012;0.000;0.000;2023-09-30T15:19:00;5.45;;;2.50;;
80647;SDS011;70012;0.000;0.000;2023-09-30T15:21:28;7.82;;;2.72;;
80647;SDS011;70012;0.000;0.000;2023-09-30T15:23:55;5.50;;;2.40;;
80647;SDS011;70012;0.000;0.000;2023-09-30T15:26:22;8.50;;;2.83;;
80647;SDS011;70012;0.000;0.000;2023-09-30T15:28:49;6.70;;;2.65;;
80647;SDS011;70012;0.000;0.000;2023-09-30T15:31:16;5.78;;;2.38;;
80647;SDS011;70012;0.000;0.000;2023-09-30T15:33:43;6.75;;;2.63;;
80647;SDS011;70012;0.000;0.000;2023-09-30T15:36:11;8.40;;;2.50;;
80647;SDS011;70012;0.000;0.000;2023-09-30T15:38:39;3.95;;;2.28;;
80647;SDS011;70012;0.000;0.000;2023-09-30T15:41:06;4.65;;;2.90;;
80647;SDS011;70012;0.000;0.000;2023-09-30T15:43:32;6.07;;;2.50;;
80647;SDS011;70012;0.000;0.000;2023-09-30T15:45:59;35.88;;;3.20;;